Time;durP1;ratioP1;P1;durP2;ratioP2;P2;SDS_P1;SDS_P2;PMS_P1;PMS_P2;Temp;Humidity;BMP_temperature;BMP_pressure;BME280_temperature;BME280_humidity;BME280_pressure;Samples;Min_cycle;Max_cycle;Signal;HPM_P1;HPM_P2
2023/12/28 00:00:41;;;;;;;9.95;4.22;;;7.80;99.90;;;;;;5062777;28;20085;-70
2023/12/28 00:03:07;;;;;;;7.25;3.83;;;7.70;99.90;;;;;;5061033;28;20136;-72
2023/12/28 00:05:33;;;;;;;13.85;4.63;;;7.70;99.90;;;;;;5063145;28;20032;-70
2023/12/28 00:07:58;;;;;;;8.02;3.58;;;7.70;99.90;;;;;;5062988;28;20085;-69
2023/12/28 00:10:25;;;;;;;5.88;3.15;;;7.60;99.90;;;;;;5062597;28;20032;-70
2023/12/28 00:12:51;;;;;;;7.60;3.35;;;7.60;99.90;;;;;;5060840;28;20469;-68
2023/12/28 00:15:16;;;;;;;10.77;4.55;;;7.60;99.90;;;;;;5060301;28;20017;-71
2023/12/28 00:17:42;;;;;;;9.98;3.97;;;7.60;99.90;;;;;;5062484;28;20025;-73
2023/12/28 00:20:08;;;;;;;8.82;4.38;;;7.60;99.90;;;;;;5062412;28;20020;-70
2023/12/28 00:22:33;;;;;;;9.98;4.72;;;7.60;99.90;;;;;;5062361;28;20032;-72
2023/12/28 00:24:59;;;;;;;9.00;4.72;;;7.60;99.90;;;;;;5061142;28;20085;-72
2023/12/28 00:27:25;;;;;;;10.45;3.67;;;7.60;99.90;;;;;;5062411;28;20033;-72
2023/12/28 00:29:50;;;;;;;9.32;4.03;;;7.70;99.90;;;;;;5059781;28;20101;-70
2023/12/28 00:32:16;;;;;;;10.48;3.13;;;7.70;99.90;;;;;;5060269;28;20051;-69
2023/12/28 00:34:41;;;;;;;9.55;3.58;;;7.70;99.90;;;;;;5062248;28;20025;-69
2023/12/28 00:37:07;;;;;;;12.30;4.70;;;7.70;99.90;;;;;;5060515;28;20032;-73
2023/12/28 00:39:35;;;;;;;10.73;4.15;;;7.70;99.90;;;;;;5060891;28;20029;-70
2023/12/28 00:42:00;;;;;;;13.02;4.88;;;7.80;99.90;;;;;;5062273;28;20123;-69
2023/12/28 00:44:26;;;;;;;15.05;4.82;;;7.80;99.90;;;;;;5062424;28;20477;-71
2023/12/28 00:46:51;;;;;;;8.70;3.67;;;7.70;99.90;;;;;;5062007;28;20013;-70
2023/12/28 00:49:17;;;;;;;8.25;4.30;;;7.70;99.90;;;;;;5060547;28;20092;-69
2023/12/28 00:51:43;;;;;;;8.98;4.60;;;7.90;99.90;;;;;;5060362;28;20025;-71
2023/12/28 00:54:08;;;;;;;7.05;4.07;;;7.80;99.90;;;;;;5060450;28;20132;-70
2023/12/28 00:56:34;;;;;;;10.30;4.50;;;7.80;99.90;;;;;;5061800;28;20028;-70
2023/12/28 00:59:01;;;;;;;9.50;4.40;;;7.80;99.90;;;;;;5061741;28;20055;-71
2023/12/28 01:01:27;;;;;;;8.10;4.72;;;7.80;99.90;;;;;;5060506;28;20021;-73
2023/12/28 01:03:53;;;;;;;11.88;4.35;;;7.80;99.90;;;;;;5060622;28;20187;-72
2023/12/28 01:06:18;;;;;;;10.75;4.85;;;7.80;99.90;;;;;;5061187;28;20717;-67
2023/12/28 01:08:44;;;;;;;7.10;4.50;;;7.80;99.90;;;;;;5061205;28;20013;-70
2023/12/28 01:11:11;;;;;;;8.32;4.75;;;7.80;99.90;;;;;;5060809;28;20044;-70
2023/12/28 01:13:37;;;;;;;7.93;4.03;;;7.80;99.90;;;;;;5056657;28;20047;-70
2023/12/28 01:16:03;;;;;;;8.63;3.90;;;7.80;99.90;;;;;;5060636;28;20029;-72
2023/12/28 01:18:29;;;;;;;11.77;4.70;;;7.80;99.90;;;;;;5059749;28;20074;-69
2023/12/28 01:20:55;;;;;;;11.20;4.80;;;7.90;99.90;;;;;;5060534;28;20096;-71
2023/12/28 01:23:20;;;;;;;7.88;4.78;;;7.90;99.90;;;;;;5060079;28;20033;-71
2023/12/28 01:25:46;;;;;;;8.68;4.35;;;7.90;99.90;;;;;;5059284;28;20712;-71
2023/12/28 01:28:12;;;;;;;9.57;4.65;;;7.90;99.90;;;;;;5060656;28;20036;-69
2023/12/28 01:30:37;;;;;;;7.78;4.30;;;7.90;99.90;;;;;;5060617;28;20051;-71
2023/12/28 01:33:03;;;;;;;9.82;4.68;;;8.00;99.90;;;;;;5060416;28;20049;-71
2023/12/28 01:35:29;;;;;;;6.47;4.25;;;8.00;99.90;;;;;;5059427;28;20052;-71
2023/12/28 01:38:00;;;;;;;10.88;4.95;;;8.00;99.90;;;;;;5060916;28;20032;-70
2023/12/28 01:40:25;;;;;;;9.50;4.80;;;8.00;99.90;;;;;;5060535;28;20052;-71
2023/12/28 01:42:51;;;;;;;8.77;4.20;;;8.00;99.90;;;;;;5059307;28;20032;-69
2023/12/28 01:45:16;;;;;;;6.10;3.38;;;8.00;99.90;;;;;;5060619;28;20080;-71
2023/12/28 01:47:42;;;;;;;7.70;4.30;;;8.00;99.90;;;;;;5060444;28;20025;-71
2023/12/28 01:50:09;;;;;;;11.77;4.18;;;8.00;99.90;;;;;;5059064;28;20037;-68
2023/12/28 01:52:35;;;;;;;11.02;4.50;;;8.00;99.90;;;;;;5060585;28;20024;-69
2023/12/28 01:55:01;;;;;;;12.52;4.43;;;8.00;99.90;;;;;;5060374;28;20029;-71
2023/12/28 01:57:27;;;;;;;9.00;4.50;;;8.00;99.90;;;;;;5060198;28;20028;-70
2023/12/28 01:59:54;;;;;;;7.25;4.03;;;8.00;99.90;;;;;;5058579;28;20043;-70
2023/12/28 02:02:22;;;;;;;7.07;4.30;;;8.00;99.90;;;;;;5058466;28;20049;-70
2023/12/28 02:04:47;;;;;;;8.95;4.03;;;8.00;99.90;;;;;;5060056;28;21541;-69
2023/12/28 02:07:14;;;;;;;7.07;4.00;;;8.00;99.90;;;;;;5060379;28;20017;-69
2023/12/28 02:09:39;;;;;;;8.20;4.07;;;8.00;99.90;;;;;;5060306;28;20071;-70
2023/12/28 02:12:05;;;;;;;10.48;4.30;;;8.00;99.90;;;;;;5058854;28;20021;-70
2023/12/28 02:14:31;;;;;;;8.25;3.92;;;8.00;99.90;;;;;;5060156;28;20031;-70
2023/12/28 02:17:04;;;;;;;9.75;4.22;;;8.00;99.90;;;;;;5058611;28;20021;-71
2023/12/28 02:19:56;;;;;;;6.90;4.30;;;8.00;99.90;;;;;;5059016;28;20029;-69
2023/12/28 02:22:25;;;;;;;8.15;4.53;;;8.00;99.90;;;;;;5059035;28;20064;-69
2023/12/28 02:25:07;;;;;;;14.18;4.07;;;8.00;99.90;;;;;;5057760;28;20033;-69
2023/12/28 02:27:38;;;;;;;9.65;4.40;;;8.00;99.90;;;;;;5058805;28;20025;-73
2023/12/28 02:30:06;;;;;;;12.00;4.60;;;8.00;99.90;;;;;;5058528;28;20103;-69
2023/12/28 02:32:42;;;;;;;8.60;4.43;;;8.00;99.90;;;;;;5059041;28;20029;-69
2023/12/28 02:35:35;;;;;;;11.07;4.40;;;8.10;99.90;;;;;;5058246;28;20044;-70
2023/12/28 02:38:05;;;;;;;12.73;4.82;;;8.10;99.90;;;;;;5060538;28;20529;-70
2023/12/28 02:40:39;;;;;;;9.20;4.38;;;8.10;99.90;;;;;;5063701;28;20032;-71
2023/12/28 02:43:08;;;;;;;10.55;4.95;;;8.10;99.90;;;;;;5063419;28;20040;-72
2023/12/28 02:45:35;;;;;;;10.70;4.13;;;8.10;99.90;;;;;;5061374;28;20025;-69
2023/12/28 02:48:02;;;;;;;9.38;4.50;;;8.10;99.90;;;;;;5063572;28;20035;-73
2023/12/28 02:50:30;;;;;;;19.88;8.40;;;8.10;99.90;;;;;;5063772;28;20039;-72
2023/12/28 02:52:56;;;;;;;9.82;5.45;;;8.20;99.90;;;;;;5062530;28;20017;-70
2023/12/28 02:55:22;;;;;;;14.02;6.82;;;8.20;99.90;;;;;;5062110;28;20036;-69
2023/12/28 02:57:50;;;;;;;13.55;7.03;;;8.20;99.90;;;;;;5063301;28;20028;-69
2023/12/28 03:00:15;;;;;;;17.70;9.25;;;8.20;99.90;;;;;;5063176;28;20093;-70
2023/12/28 03:02:41;;;;;;;9.30;4.53;;;8.20;99.90;;;;;;5063170;28;20056;-71
2023/12/28 03:05:07;;;;;;;8.48;5.30;;;8.10;99.90;;;;;;5062041;28;20992;-71
2023/12/28 03:07:34;;;;;;;13.10;4.93;;;8.20;99.90;;;;;;5062088;28;20131;-72
2023/12/28 03:10:00;;;;;;;8.45;5.05;;;8.10;99.90;;;;;;5063108;28;20037;-70
2023/12/28 03:12:27;;;;;;;9.55;4.55;;;8.20;99.90;;;;;;5063345;28;20033;-70
2023/12/28 03:14:52;;;;;;;12.02;5.05;;;8.20;99.90;;;;;;5063073;28;20021;-68
2023/12/28 03:17:18;;;;;;;8.20;4.25;;;8.20;99.90;;;;;;5063227;28;20037;-69
2023/12/28 03:19:43;;;;;;;13.35;4.93;;;8.20;99.90;;;;;;5062923;28;20061;-72
2023/12/28 03:22:09;;;;;;;9.48;4.97;;;8.20;99.90;;;;;;5060593;28;20021;-70
2023/12/28 03:24:37;;;;;;;12.88;4.57;;;8.20;99.90;;;;;;5061483;28;20025;-70
2023/12/28 03:27:03;;;;;;;10.40;4.88;;;8.20;99.90;;;;;;5062773;28;20040;-70
2023/12/28 03:29:29;;;;;;;8.73;4.70;;;8.20;99.90;;;;;;5060902;28;20044;-72
2023/12/28 03:31:55;;;;;;;11.75;4.38;;;8.20;99.90;;;;;;5062848;28;20029;-75
2023/12/28 03:34:21;;;;;;;9.05;4.55;;;8.30;99.90;;;;;;5061553;28;20037;-70
2023/12/28 03:36:47;;;;;;;10.27;5.18;;;8.30;99.90;;;;;;5061677;28;20421;-71
2023/12/28 03:39:12;;;;;;;15.95;5.97;;;8.30;99.90;;;;;;5060468;28;20016;-69
2023/12/28 03:41:38;;;;;;;15.43;7.28;;;8.30;99.90;;;;;;5062794;28;20059;-69
2023/12/28 03:44:04;;;;;;;12.70;6.00;;;8.30;99.90;;;;;;5062339;28;20408;-69
2023/12/28 03:46:29;;;;;;;17.38;5.75;;;8.40;99.90;;;;;;5061482;28;20069;-70
2023/12/28 03:48:58;;;;;;;10.25;5.82;;;8.40;99.90;;;;;;5061850;28;20044;-70
2023/12/28 03:51:25;;;;;;;11.88;5.55;;;8.40;99.90;;;;;;5061572;28;20100;-72
2023/12/28 03:53:51;;;;;;;10.38;5.13;;;8.40;99.90;;;;;;5061600;28;20043;-70
2023/12/28 03:56:30;;;;;;;17.20;6.68;;;8.40;99.90;;;;;;5062021;28;20092;-69
2023/12/28 03:58:57;;;;;;;15.00;6.47;;;8.40;99.90;;;;;;5062207;28;20037;-70
2023/12/28 04:01:23;;;;;;;16.02;5.75;;;8.30;99.90;;;;;;5062100;28;20151;-70
2023/12/28 04:03:49;;;;;;;10.68;5.70;;;8.40;99.90;;;;;;5060261;28;20128;-69
2023/12/28 04:06:15;;;;;;;14.10;5.45;;;8.40;99.90;;;;;;5061870;28;20116;-70
2023/12/28 04:08:42;;;;;;;14.85;5.85;;;8.40;99.90;;;;;;5061682;28;20021;-72
2023/12/28 04:11:08;;;;;;;12.50;5.55;;;8.40;99.90;;;;;;5061904;28;20036;-71
2023/12/28 04:13:34;;;;;;;13.82;6.20;;;8.40;99.90;;;;;;5062243;28;20033;-71
2023/12/28 04:16:01;;;;;;;15.70;6.90;;;8.40;99.90;;;;;;5055510;28;20064;-69
2023/12/28 04:18:27;;;;;;;15.40;6.97;;;8.50;99.90;;;;;;5060640;28;20029;-69
2023/12/28 04:20:53;;;;;;;17.33;6.75;;;8.40;99.90;;;;;;5062015;28;20497;-71
2023/12/28 04:23:19;;;;;;;14.43;6.55;;;8.40;99.90;;;;;;5061846;28;20025;-68
2023/12/28 04:25:44;;;;;;;19.65;6.50;;;8.40;99.90;;;;;;5061772;28;20032;-70
2023/12/28 04:28:10;;;;;;;13.63;6.35;;;8.40;99.90;;;;;;5061223;28;21375;-70
2023/12/28 04:30:36;;;;;;;15.88;6.20;;;8.40;99.90;;;;;;5059490;28;20025;-70
2023/12/28 04:33:02;;;;;;;10.93;5.38;;;8.40;99.90;;;;;;5060175;28;20037;-72
2023/12/28 04:35:30;;;;;;;16.83;6.57;;;8.40;99.90;;;;;;5061803;28;20534;-71
2023/12/28 04:37:56;;;;;;;18.25;5.53;;;8.40;99.90;;;;;;5061887;28;20128;-72
2023/12/28 04:40:22;;;;;;;14.52;5.20;;;8.40;99.90;;;;;;5062468;28;20021;-68
2023/12/28 04:42:47;;;;;;;14.00;5.72;;;8.40;99.90;;;;;;5062045;28;20039;-68
2023/12/28 04:45:14;;;;;;;11.13;5.43;;;8.40;99.90;;;;;;5060638;28;20144;-69
2023/12/28 04:47:39;;;;;;;11.95;4.68;;;8.40;99.90;;;;;;5062159;28;20370;-72
2023/12/28 04:50:06;;;;;;;13.32;5.13;;;8.40;99.90;;;;;;5061907;28;20029;-70
2023/12/28 04:52:32;;;;;;;12.85;5.32;;;8.40;99.90;;;;;;5061477;28;20497;-72
2023/12/28 04:54:58;;;;;;;13.10;5.15;;;8.40;99.90;;;;;;5056511;28;20025;-73
2023/12/28 04:57:25;;;;;;;15.63;6.18;;;8.40;99.90;;;;;;5060992;28;21107;-72
2023/12/28 04:59:51;;;;;;;15.73;6.45;;;8.40;99.90;;;;;;5061308;28;20504;-71
2023/12/28 05:02:16;;;;;;;14.95;7.38;;;8.40;99.90;;;;;;5059679;28;20060;-69
2023/12/28 05:04:42;;;;;;;23.08;7.35;;;8.40;99.90;;;;;;5060641;28;20089;-69
2023/12/28 05:07:08;;;;;;;17.50;6.70;;;8.40;99.90;;;;;;5060634;28;20498;-70
2023/12/28 05:09:33;;;;;;;21.85;8.02;;;8.40;99.90;;;;;;5061716;28;20041;-70
2023/12/28 05:11:59;;;;;;;24.90;7.65;;;8.40;99.90;;;;;;5061543;28;20028;-70
2023/12/28 05:14:24;;;;;;;18.30;6.85;;;8.40;99.90;;;;;;5061846;28;20067;-70
2023/12/28 05:16:50;;;;;;;13.52;6.38;;;8.40;99.90;;;;;;5061302;28;20512;-71
2023/12/28 05:19:16;;;;;;;17.35;6.53;;;8.30;99.90;;;;;;5060382;28;20029;-68
2023/12/28 05:21:41;;;;;;;17.00;6.90;;;8.30;99.90;;;;;;5060799;28;20390;-68
2023/12/28 05:24:07;;;;;;;17.88;6.63;;;8.30;99.90;;;;;;5061432;28;20037;-68
2023/12/28 05:26:33;;;;;;;19.50;7.18;;;8.20;99.90;;;;;;5061445;28;20024;-70
2023/12/28 05:28:59;;;;;;;15.50;6.90;;;8.20;99.90;;;;;;5059152;28;20037;-69
2023/12/28 05:31:25;;;;;;;18.70;6.70;;;8.20;99.90;;;;;;5061480;28;20033;-71
2023/12/28 05:33:50;;;;;;;17.55;7.25;;;8.20;99.90;;;;;;5061494;28;20033;-68
2023/12/28 05:36:16;;;;;;;15.35;6.22;;;8.20;99.90;;;;;;5061045;28;20042;-67
2023/12/28 05:38:42;;;;;;;13.02;6.28;;;8.30;99.90;;;;;;5061455;28;20049;-70
2023/12/28 05:41:09;;;;;;;12.98;5.85;;;8.30;99.90;;;;;;5061157;28;20029;-69
2023/12/28 05:43:35;;;;;;;15.68;6.68;;;8.30;99.90;;;;;;5060827;28;20092;-70
2023/12/28 05:46:00;;;;;;;17.42;6.43;;;8.30;99.90;;;;;;5059221;28;20051;-68
2023/12/28 05:48:26;;;;;;;20.50;6.50;;;8.30;99.90;;;;;;5059174;28;20516;-72
2023/12/28 05:50:51;;;;;;;16.67;6.05;;;8.30;99.90;;;;;;5061200;28;21151;-69
2023/12/28 05:53:17;;;;;;;16.67;6.68;;;8.30;99.90;;;;;;5060976;28;20033;-69
2023/12/28 05:55:43;;;;;;;18.55;5.80;;;8.30;99.90;;;;;;5061142;28;20033;-69
2023/12/28 05:58:12;;;;;;;13.82;6.20;;;8.30;99.90;;;;;;5060903;28;20025;-68
2023/12/28 06:00:38;;;;;;;17.92;6.35;;;8.30;99.90;;;;;;5060845;28;20044;-69
2023/12/28 06:03:05;;;;;;;16.80;5.60;;;8.30;99.90;;;;;;5060329;28;20044;-70
2023/12/28 06:05:30;;;;;;;21.50;6.90;;;8.30;99.90;;;;;;5053980;28;20394;-70
2023/12/28 06:07:57;;;;;;;13.95;7.13;;;8.40;99.90;;;;;;5057689;28;20025;-69
2023/12/28 06:10:24;;;;;;;30.65;7.35;;;8.40;99.90;;;;;;5057654;28;20040;-68
2023/12/28 06:12:49;;;;;;;15.55;6.93;;;8.50;99.90;;;;;;5059287;28;20033;-70
2023/12/28 06:15:15;;;;;;;16.67;6.72;;;8.50;99.90;;;;;;5064681;28;20036;-69
2023/12/28 06:17:40;;;;;;;19.23;6.85;;;8.60;99.90;;;;;;5063889;28;20115;-70
2023/12/28 06:20:08;;;;;;;15.02;6.25;;;8.60;99.90;;;;;;5064687;28;20029;-69
2023/12/28 06:22:33;;;;;;;16.13;6.13;;;8.70;99.90;;;;;;5063327;28;20033;-71
2023/12/28 06:24:59;;;;;;;12.63;5.00;;;8.70;99.90;;;;;;5062337;28;20051;-70
2023/12/28 06:27:25;;;;;;;21.45;5.55;;;8.80;99.90;;;;;;5064908;28;20032;-68
2023/12/28 06:29:50;;;;;;;12.70;4.72;;;8.80;99.90;;;;;;5064534;28;20033;-69
2023/12/28 06:32:16;;;;;;;16.17;4.95;;;8.90;99.90;;;;;;5060895;28;20413;-69
2023/12/28 06:34:41;;;;;;;22.85;5.40;;;8.90;99.90;;;;;;5063885;28;20035;-69
2023/12/28 06:37:07;;;;;;;13.48;4.45;;;8.90;99.90;;;;;;5062011;28;20029;-73
2023/12/28 06:39:32;;;;;;;12.95;4.72;;;9.00;99.90;;;;;;5061401;28;20600;-71
2023/12/28 06:41:58;;;;;;;10.70;4.40;;;9.00;99.90;;;;;;5060669;28;20092;-69
2023/12/28 06:44:24;;;;;;;16.02;5.70;;;9.10;99.90;;;;;;5060021;28;20500;-68
2023/12/28 06:46:49;;;;;;;17.13;5.43;;;9.10;99.90;;;;;;5063791;28;20017;-69
2023/12/28 06:49:15;;;;;;;20.90;5.07;;;9.10;99.90;;;;;;5063071;28;20040;-66
2023/12/28 06:51:42;;;;;;;15.93;5.30;;;9.10;99.90;;;;;;5063127;28;20442;-68
2023/12/28 06:54:09;;;;;;;19.55;5.78;;;9.20;99.90;;;;;;5061613;28;20100;-68
2023/12/28 06:56:34;;;;;;;13.65;4.03;;;9.20;99.90;;;;;;5058306;28;20029;-69
2023/12/28 06:59:00;;;;;;;15.55;3.72;;;9.20;99.90;;;;;;5061985;28;20052;-72
2023/12/28 07:01:25;;;;;;;12.63;3.90;;;9.20;99.90;;;;;;5064264;28;20040;-70
2023/12/28 07:03:52;;;;;;;18.70;4.82;;;9.30;99.90;;;;;;5062378;28;20561;-69
2023/12/28 07:06:17;;;;;;;13.80;4.53;;;9.40;99.90;;;;;;5064016;28;20025;-71
2023/12/28 07:08:43;;;;;;;21.25;4.75;;;9.40;99.90;;;;;;5063595;28;20028;-70
2023/12/28 07:11:12;;;;;;;15.13;3.85;;;9.40;99.90;;;;;;5061098;28;20048;-69
2023/12/28 07:13:37;;;;;;;10.07;3.00;;;9.40;99.90;;;;;;5063039;28;20032;-71
2023/12/28 07:16:03;;;;;;;15.82;3.63;;;9.40;99.90;;;;;;5059634;28;20029;-73
2023/12/28 07:18:29;;;;;;;10.43;3.97;;;9.50;99.90;;;;;;5062104;28;20025;-68
2023/12/28 07:20:55;;;;;;;12.73;3.70;;;9.50;99.90;;;;;;5062151;28;20025;-72
2023/12/28 07:23:20;;;;;;;14.95;3.92;;;9.50;99.90;;;;;;5061869;28;20037;-72
2023/12/28 07:25:46;;;;;;;12.43;3.97;;;9.60;99.90;;;;;;5063144;28;20025;-70
2023/12/28 07:28:12;;;;;;;18.35;5.35;;;9.60;99.90;;;;;;5062334;28;20040;-68
2023/12/28 07:30:37;;;;;;;15.80;4.60;;;9.70;99.90;;;;;;5062985;28;20052;-72
2023/12/28 07:33:03;;;;;;;17.35;4.07;;;9.70;99.90;;;;;;5063507;28;20036;-70
2023/12/28 07:35:29;;;;;;;20.25;4.72;;;9.70;99.90;;;;;;5063452;28;20021;-73
2023/12/28 07:37:55;;;;;;;17.48;4.95;;;9.80;99.90;;;;;;5060073;28;20158;-69
2023/12/28 07:40:20;;;;;;;15.15;5.45;;;9.80;99.90;;;;;;5062831;28;20017;-69
2023/12/28 07:42:46;;;;;;;21.73;4.50;;;9.80;99.90;;;;;;5061133;28;20044;-70
2023/12/28 07:45:11;;;;;;;21.60;5.45;;;9.80;99.90;;;;;;5060307;28;20036;-68
2023/12/28 07:47:37;;;;;;;17.17;4.55;;;9.90;99.90;;;;;;5058978;28;20025;-67
2023/12/28 07:50:03;;;;;;;18.23;4.45;;;9.90;99.90;;;;;;5057135;28;20498;-72
2023/12/28 07:52:29;;;;;;;12.60;3.08;;;9.90;99.90;;;;;;5061683;28;20037;-72
2023/12/28 07:54:55;;;;;;;15.10;3.28;;;10.00;99.90;;;;;;5062661;28;20041;-71
2023/12/28 07:57:21;;;;;;;12.70;3.03;;;10.00;99.90;;;;;;5062627;28;20512;-69
2023/12/28 07:59:46;;;;;;;19.50;4.68;;;10.00;99.90;;;;;;5061775;28;20607;-72
2023/12/28 08:02:12;;;;;;;16.80;5.25;;;10.00;99.90;;;;;;5059414;28;20053;-70
2023/12/28 08:04:38;;;;;;;21.75;5.50;;;10.00;99.90;;;;;;5061314;28;20094;-71
2023/12/28 08:07:04;;;;;;;20.52;5.40;;;10.10;99.90;;;;;;5062396;28;20060;-69
2023/12/28 08:09:30;;;;;;;17.80;5.05;;;10.10;99.90;;;;;;5061953;28;20029;-72
2023/12/28 08:11:56;;;;;;;15.48;4.03;;;10.10;99.90;;;;;;5060112;28;20466;-68
2023/12/28 08:14:22;;;;;;;20.08;3.72;;;10.10;99.90;;;;;;5060613;28;20033;-71
2023/12/28 08:16:47;;;;;;;14.23;3.25;;;10.10;99.90;;;;;;5059296;28;20397;-70
2023/12/28 08:19:13;;;;;;;10.15;2.72;;;10.10;99.90;;;;;;5060957;28;20052;-70
2023/12/28 08:21:39;;;;;;;14.50;3.38;;;10.10;99.90;;;;;;5057219;28;20029;-69
2023/12/28 08:24:08;;;;;;;20.80;3.40;;;10.20;99.90;;;;;;5055617;28;21319;-69
2023/12/28 08:26:34;;;;;;;18.83;2.90;;;10.20;99.90;;;;;;5054755;28;20099;-69
2023/12/28 08:28:59;;;;;;;14.68;2.90;;;10.20;99.90;;;;;;5054651;28;20687;-72
2023/12/28 08:31:25;;;;;;;19.35;3.60;;;10.20;99.90;;;;;;5059111;28;20045;-72
2023/12/28 08:33:51;;;;;;;14.43;2.85;;;10.20;99.90;;;;;;5059186;28;20051;-72
2023/12/28 08:36:17;;;;;;;18.73;2.80;;;10.20;99.90;;;;;;5061012;28;20412;-70
2023/12/28 08:38:43;;;;;;;21.20;3.45;;;10.30;99.90;;;;;;5057189;28;20032;-73
2023/12/28 08:41:18;;;;;;;14.48;2.45;;;10.30;99.90;;;;;;5059851;28;20104;-73
2023/12/28 08:43:44;;;;;;;11.10;2.55;;;10.30;99.90;;;;;;5058162;28;20043;-70
2023/12/28 08:46:10;;;;;;;15.23;2.75;;;10.40;99.90;;;;;;5060678;28;20567;-68
2023/12/28 08:48:35;;;;;;;10.40;3.03;;;10.50;99.90;;;;;;5061469;28;20032;-70
2023/12/28 08:51:01;;;;;;;14.45;3.00;;;10.50;99.90;;;;;;5059920;28;20127;-69
2023/12/28 08:53:26;;;;;;;7.97;2.47;;;10.60;99.90;;;;;;5061525;28;20024;-70
2023/12/28 08:55:52;;;;;;;15.32;3.20;;;10.70;99.90;;;;;;5061369;28;20096;-70
2023/12/28 08:58:18;;;;;;;12.95;3.00;;;10.70;99.90;;;;;;5060583;28;20076;-71
2023/12/28 09:00:45;;;;;;;11.23;2.55;;;10.90;99.90;;;;;;5059943;28;20032;-70
2023/12/28 09:03:10;;;;;;;13.00;3.47;;;11.00;99.90;;;;;;5058850;28;20505;-70
2023/12/28 09:05:36;;;;;;;13.25;2.58;;;11.00;99.90;;;;;;5061222;28;20032;-75
2023/12/28 09:08:02;;;;;;;12.63;2.65;;;10.90;99.90;;;;;;5058940;28;20033;-69
2023/12/28 09:10:27;;;;;;;15.18;2.45;;;10.90;99.90;;;;;;5058115;28;20068;-73
2023/12/28 09:12:53;;;;;;;16.55;3.22;;;10.90;99.90;;;;;;5059439;28;20028;-70
2023/12/28 09:15:18;;;;;;;15.15;3.20;;;10.90;99.90;;;;;;5059462;28;20032;-72
2023/12/28 09:17:44;;;;;;;15.07;2.50;;;10.90;99.90;;;;;;5059334;28;20064;-70
2023/12/28 09:20:11;;;;;;;11.57;2.88;;;11.00;99.90;;;;;;5058408;28;20158;-68
2023/12/28 09:22:37;;;;;;;12.43;2.97;;;11.10;99.90;;;;;;5059146;28;20093;-70
2023/12/28 09:25:05;;;;;;;13.63;2.83;;;11.10;99.90;;;;;;5059528;28;20051;-67
2023/12/28 09:27:31;;;;;;;16.67;2.80;;;11.10;99.90;;;;;;5057496;28;20055;-68
2023/12/28 09:29:56;;;;;;;18.98;3.38;;;11.10;99.90;;;;;;5055601;28;20053;-71
2023/12/28 09:32:22;;;;;;;14.60;3.28;;;11.10;99.90;;;;;;5057576;28;20559;-73
2023/12/28 09:34:47;;;;;;;8.82;2.05;;;11.00;99.90;;;;;;5059528;28;20678;-71
2023/12/28 09:37:13;;;;;;;30.77;3.10;;;11.00;99.90;;;;;;5057161;28;20028;-68
2023/12/28 09:39:39;;;;;;;16.17;3.00;;;10.90;99.90;;;;;;5059836;28;20100;-68
2023/12/28 09:42:09;;;;;;;13.73;2.80;;;10.90;99.90;;;;;;5061087;28;20116;-69
2023/12/28 09:44:38;;;;;;;14.02;2.85;;;10.90;99.90;;;;;;5058763;28;20029;-69
2023/12/28 09:47:06;;;;;;;19.45;3.30;;;10.90;99.90;;;;;;5056346;28;20031;-70
2023/12/28 09:49:33;;;;;;;21.50;3.60;;;10.90;99.90;;;;;;5058896;28;20032;-70
2023/12/28 09:52:00;;;;;;;21.13;3.08;;;10.90;99.90;;;;;;5056210;28;20148;-69
2023/12/28 09:54:25;;;;;;;14.55;2.97;;;10.90;99.90;;;;;;5056582;28;20390;-69
2023/12/28 09:56:52;;;;;;;17.80;3.42;;;10.90;99.90;;;;;;5056798;28;21099;-73
2023/12/28 09:59:19;;;;;;;16.15;3.10;;;10.80;99.90;;;;;;5058279;28;20067;-65
2023/12/28 10:01:46;;;;;;;19.42;3.22;;;10.80;99.90;;;;;;5058661;28;20051;-70
2023/12/28 10:04:12;;;;;;;11.95;2.95;;;10.80;99.90;;;;;;5056302;28;20037;-71
2023/12/28 10:06:38;;;;;;;16.30;3.00;;;10.80;99.90;;;;;;5059687;28;20044;-69
2023/12/28 10:09:07;;;;;;;16.52;3.38;;;10.80;99.90;;;;;;5058933;28;20041;-70
2023/12/28 10:11:34;;;;;;;21.02;4.00;;;10.80;99.90;;;;;;5059390;28;20048;-69
2023/12/28 10:13:59;;;;;;;16.58;3.25;;;10.80;99.90;;;;;;5059144;28;20085;-69
2023/12/28 10:16:26;;;;;;;20.73;3.35;;;10.80;99.90;;;;;;5059251;28;20029;-71
2023/12/28 10:18:52;;;;;;;15.38;3.42;;;10.80;99.90;;;;;;5059349;28;20025;-70
2023/12/28 10:21:18;;;;;;;18.35;3.38;;;10.90;99.90;;;;;;5058047;28;20079;-69
2023/12/28 10:23:44;;;;;;;20.40;2.90;;;10.90;99.90;;;;;;5056573;28;20029;-70
2023/12/28 10:26:10;;;;;;;21.45;3.42;;;11.00;99.90;;;;;;5052612;28;20052;-68
2023/12/28 10:28:39;;;;;;;22.42;3.35;;;11.00;99.90;;;;;;5056220;28;20025;-71
2023/12/28 10:31:05;;;;;;;23.10;3.72;;;11.00;99.90;;;;;;5051330;28;20048;-71
2023/12/28 10:33:36;;;;;;;20.83;3.25;;;11.00;99.90;;;;;;5059731;28;20056;-72
2023/12/28 10:36:06;;;;;;;21.33;3.40;;;11.00;99.90;;;;;;5057923;28;20059;-70
2023/12/28 10:38:36;;;;;;;19.45;3.17;;;11.00;99.90;;;;;;5058528;28;20419;-69
2023/12/28 10:41:08;;;;;;;15.80;3.00;;;11.00;99.90;;;;;;5058828;28;20047;-70
2023/12/28 10:43:58;;;;;;;26.42;3.20;;;11.00;99.90;;;;;;5056454;28;20159;-69
2023/12/28 10:46:30;;;;;;;18.65;3.30;;;11.10;99.90;;;;;;5057319;28;20066;-70
2023/12/28 10:49:11;;;;;;;16.02;2.67;;;11.10;99.90;;;;;;5057144;28;20037;-69
2023/12/28 10:51:45;;;;;;;11.98;2.95;;;11.20;99.90;;;;;;5056489;28;20044;-70
2023/12/28 10:54:31;;;;;;;18.45;3.45;;;11.20;99.90;;;;;;5051504;28;20152;-68
2023/12/28 10:57:29;;;;;;;25.77;3.92;;;11.30;99.90;;;;;;5052510;28;20043;-71
2023/12/28 11:00:08;;;;;;;15.77;2.60;;;11.30;99.90;;;;;;5060133;28;20041;-71
2023/12/28 11:02:58;;;;;;;12.15;2.85;;;11.30;99.90;;;;;;5056470;28;20041;-69
2023/12/28 11:05:25;;;;;;;20.65;3.50;;;11.30;99.90;;;;;;5059721;28;20040;-68
2023/12/28 11:07:56;;;;;;;16.40;3.20;;;11.30;99.90;;;;;;5061588;28;20037;-69
2023/12/28 11:10:23;;;;;;;18.00;3.20;;;11.30;99.90;;;;;;5061815;28;20041;-68
2023/12/28 11:12:53;;;;;;;14.25;2.47;;;11.40;99.90;;;;;;5060026;28;20049;-69
2023/12/28 11:15:19;;;;;;;15.77;3.40;;;11.30;99.90;;;;;;5061854;28;20692;-70
2023/12/28 11:17:44;;;;;;;20.30;3.60;;;11.30;99.90;;;;;;5061641;28;20028;-69
2023/12/28 11:20:11;;;;;;;15.18;3.15;;;11.30;99.90;;;;;;5061343;28;20029;-68
2023/12/28 11:22:38;;;;;;;23.15;3.47;;;11.30;99.90;;;;;;5059951;28;20436;-69
2023/12/28 11:25:04;;;;;;;20.58;3.10;;;11.30;99.90;;;;;;5060448;28;20013;-70
2023/12/28 11:27:35;;;;;;;17.33;3.35;;;11.30;99.90;;;;;;5054724;28;20048;-70
2023/12/28 11:30:03;;;;;;;10.85;2.58;;;11.30;99.90;;;;;;5060456;28;20033;-67
2023/12/28 11:32:31;;;;;;;11.95;3.05;;;11.40;99.90;;;;;;5061483;28;20084;-71
2023/12/28 11:35:00;;;;;;;17.17;3.08;;;11.40;99.90;;;;;;5059366;28;20107;-71
2023/12/28 11:37:29;;;;;;;17.95;3.63;;;11.40;99.90;;;;;;5060327;28;20037;-67
2023/12/28 11:39:56;;;;;;;17.58;3.17;;;11.40;99.90;;;;;;5060330;28;20084;-69
2023/12/28 11:42:22;;;;;;;20.25;3.55;;;11.40;99.90;;;;;;5059132;28;20448;-69
2023/12/28 11:44:56;;;;;;;20.05;3.75;;;11.40;99.90;;;;;;5060756;28;20037;-68
2023/12/28 11:47:28;;;;;;;18.67;2.97;;;11.40;99.90;;;;;;5061280;28;20036;-69
2023/12/28 11:49:54;;;;;;;21.40;3.53;;;11.40;99.90;;;;;;5061267;28;20037;-68
2023/12/28 11:52:24;;;;;;;17.55;3.30;;;11.30;99.90;;;;;;5054025;28;20683;-68
2023/12/28 11:54:50;;;;;;;19.58;2.97;;;11.30;99.90;;;;;;5059126;28;20093;-69
2023/12/28 11:57:16;;;;;;;18.92;3.63;;;11.30;99.90;;;;;;5059175;28;20033;-68
2023/12/28 11:59:43;;;;;;;17.60;3.55;;;11.40;99.90;;;;;;5061537;28;20048;-67
2023/12/28 12:02:09;;;;;;;22.30;3.15;;;11.30;99.90;;;;;;5059086;28;20048;-67
2023/12/28 12:04:35;;;;;;;19.40;3.58;;;11.30;99.90;;;;;;5059437;28;21103;-72
2023/12/28 12:07:06;;;;;;;19.38;3.22;;;11.20;99.90;;;;;;5062570;28;20064;-70
2023/12/28 12:09:34;;;;;;;26.15;3.88;;;11.30;99.90;;;;;;5062012;28;20056;-68
2023/12/28 12:12:04;;;;;;;27.55;3.75;;;11.30;99.90;;;;;;5054542;28;20024;-69
2023/12/28 12:14:30;;;;;;;24.50;3.78;;;11.30;99.90;;;;;;5060158;28;20033;-69
2023/12/28 12:17:02;;;;;;;14.88;3.13;;;11.30;99.90;;;;;;5060854;28;20025;-72
2023/12/28 12:19:28;;;;;;;25.15;3.92;;;11.30;99.90;;;;;;5060597;28;20021;-69
2023/12/28 12:21:57;;;;;;;25.23;4.05;;;11.30;99.90;;;;;;5061264;28;20028;-67
2023/12/28 12:24:23;;;;;;;16.23;3.38;;;11.30;99.90;;;;;;5061151;28;20031;-67
2023/12/28 12:26:52;;;;;;;25.35;4.15;;;11.30;99.90;;;;;;5061717;28;20036;-69
2023/12/28 12:29:19;;;;;;;20.52;4.03;;;11.30;99.90;;;;;;5061637;28;20081;-66
2023/12/28 12:31:47;;;;;;;19.80;3.50;;;11.20;99.90;;;;;;5061037;28;20043;-66
2023/12/28 12:34:16;;;;;;;18.40;3.50;;;11.20;99.90;;;;;;5061626;28;20021;-72
2023/12/28 12:36:42;;;;;;;18.30;3.08;;;11.10;99.90;;;;;;5060133;28;20063;-69
2023/12/28 12:39:11;;;;;;;26.77;3.38;;;11.20;99.90;;;;;;5061483;28;20013;-69
2023/12/28 12:41:37;;;;;;;26.20;3.67;;;11.20;99.90;;;;;;5060377;28;20025;-67
2023/12/28 12:44:03;;;;;;;16.13;3.10;;;11.20;99.90;;;;;;5060697;28;20025;-67